Aérodrome :
LOGIN :

S'inscrire | Disclaimer

   EN    FR    IT 

 










Légende :    VFR   VFR Marginal   IFR   IFR Intensif   IFR Très Intensif
Visi : 
Plafond : 
>= 8 km
>= 3000ft
5 à 8 km
1000 à 3000 ft
1500m à 5 km
500 à 1000 ft
800 à 1500m
200 à 500 ft
< 800m
< 200 ft
Symboles :   Orages  Brouillard  Fortes neiges  Fortes précipitations  Vent > 20 kt
SIGMETs :   Divers  Orages  Givrage  Turbulence  Onde Orograph.  Cendres Volcan.






- Altitude de l'aérodrome : 183 ft
- Code IATA : HAJ


EDDV - Hanover/Langenhagen Int.

DERNIER METAR :
  • 081220Z VRB05KT CAVOK 35/13 Q1019 NOSIG

METARs EXPIRÉS :
  • 081150Z VRB05KT CAVOK 35/14 Q1019 NOSIG
  • 081120Z 10005KT 050V210 9999 FEW049 34/14 Q1019 NOSIG
  • 081050Z VRB03KT CAVOK 34/14 Q1019 NOSIG
  • 081020Z 14004KT 070V220 CAVOK 33/14 Q1019 NOSIG
  • 080950Z VRB03KT CAVOK 33/15 Q1020 NOSIG

TAF TAF EDDV
Valide du 08 à 12h jusqu'au 09 à 12h UTC


081100Z 0812/0912 02005KT CAVOK
BECMG 0819/0821 VRB03KT
BECMG 0906/0908 05006KT



MET'MAP, la Météo Aéronautique d'un coup d'oeil ! - Copyright ORBIFLY Décembre 2007 - Disclaimer

ORBIFLY MET'MAP TEAM :

Programmation & Développement : Alexandra Zaïnal
Sur une idée originale de : Baudouin d'Aumeries
Assistance à la programmation : Marc-Olivier Méhu
Soutien technique & logistique : Manuel Goepfert

Contact : metmap@orbifly.com




SOURCES & CREDITS :

   NOAA